sensor_id;sensor_type;location;lat;lon;timestamp;pressure;altitude;pressure_sealevel;temperature;humidity
46846;BME280;33947;46.804;134.252;2023-04-08T00:00:23;100167.00;;;8.16;29.93
46846;BME280;33947;46.804;134.252;2023-04-08T00:03:27;100170.28;;;9.33;28.90
46846;BME280;33947;46.804;134.252;2023-04-08T00:06:31;100133.94;;;8.70;28.37
46846;BME280;33947;46.804;134.252;2023-04-08T00:09:36;100113.94;;;8.22;28.68
46846;BME280;33947;46.804;134.252;2023-04-08T00:12:41;100187.41;;;9.19;28.35
46846;BME280;33947;46.804;134.252;2023-04-08T00:15:46;100189.59;;;9.36;28.29
46846;BME280;33947;46.804;134.252;2023-04-08T00:18:50;100188.91;;;9.30;27.27
46846;BME280;33947;46.804;134.252;2023-04-08T00:21:55;100160.91;;;10.11;26.61
46846;BME280;33947;46.804;134.252;2023-04-08T00:24:59;100162.19;;;10.27;25.54
46846;BME280;33947;46.804;134.252;2023-04-08T00:28:04;100185.13;;;9.70;26.47
46846;BME280;33947;46.804;134.252;2023-04-08T00:31:09;100184.31;;;9.68;26.71
46846;BME280;33947;46.804;134.252;2023-04-08T00:34:14;100169.94;;;9.75;26.86
46846;BME280;33947;46.804;134.252;2023-04-08T00:37:18;100193.06;;;10.00;26.15
46846;BME280;33947;46.804;134.252;2023-04-08T00:40:23;100172.03;;;9.64;26.54
46846;BME280;33947;46.804;134.252;2023-04-08T00:43:28;100148.94;;;9.97;26.79
46846;BME280;33947;46.804;134.252;2023-04-08T00:46:36;100181.56;;;10.30;26.59
46846;BME280;33947;46.804;134.252;2023-04-08T00:49:42;100171.69;;;9.45;26.74
46846;BME280;33947;46.804;134.252;2023-04-08T00:52:58;99920.69;;;8.58;26.69
46846;BME280;33947;46.804;134.252;2023-04-08T00:56:02;100193.41;;;11.02;25.61
46846;BME280;33947;46.804;134.252;2023-04-08T00:59:07;100184.28;;;10.83;26.61
46846;BME280;33947;46.804;134.252;2023-04-08T01:02:29;100157.84;;;10.79;26.41
46846;BME280;33947;46.804;134.252;2023-04-08T01:05:42;100189.13;;;11.48;25.73
46846;BME280;33947;46.804;134.252;2023-04-08T01:08:53;100184.25;;;10.58;25.65
46846;BME280;33947;46.804;134.252;2023-04-08T01:12:00;100189.91;;;11.26;26.05
46846;BME280;33947;46.804;134.252;2023-04-08T01:15:07;100158.94;;;11.49;24.97
46846;BME280;33947;46.804;134.252;2023-04-08T01:18:15;100178.09;;;12.07;24.63
46846;BME280;33947;46.804;134.252;2023-04-08T01:21:19;100178.06;;;12.08;23.91
46846;BME280;33947;46.804;134.252;2023-04-08T01:24:30;100174.03;;;10.98;25.37
46846;BME280;33947;46.804;134.252;2023-04-08T01:27:37;100172.13;;;10.76;26.02
46846;BME280;33947;46.804;134.252;2023-04-08T01:30:42;100153.13;;;11.39;26.17
46846;BME280;33947;46.804;134.252;2023-04-08T01:33:48;100166.56;;;11.35;26.43
46846;BME280;33947;46.804;134.252;2023-04-08T01:36:57;100156.97;;;11.54;25.89
46846;BME280;33947;46.804;134.252;2023-04-08T01:40:03;100157.22;;;11.23;26.15
46846;BME280;33947;46.804;134.252;2023-04-08T01:43:09;100146.63;;;12.18;24.86
46846;BME280;33947;46.804;134.252;2023-04-08T01:46:14;100127.78;;;11.53;24.26
46846;BME280;33947;46.804;134.252;2023-04-08T01:49:19;100147.56;;;10.42;26.53
46846;BME280;33947;46.804;134.252;2023-04-08T01:52:25;100148.91;;;11.08;25.91
46846;BME280;33947;46.804;134.252;2023-04-08T01:55:32;100138.91;;;12.10;25.24
46846;BME280;33947;46.804;134.252;2023-04-08T01:58:39;100119.00;;;11.51;24.58
46846;BME280;33947;46.804;134.252;2023-04-08T02:01:46;100126.72;;;12.05;25.22
46846;BME280;33947;46.804;134.252;2023-04-08T02:04:50;100133.66;;;12.53;24.81
46846;BME280;33947;46.804;134.252;2023-04-08T02:07:54;100131.00;;;10.88;24.99
46846;BME280;33947;46.804;134.252;2023-04-08T02:10:58;100128.25;;;11.15;25.53
46846;BME280;33947;46.804;134.252;2023-04-08T02:14:03;100082.06;;;10.94;26.12
46846;BME280;33947;46.804;134.252;2023-04-08T02:17:12;100129.19;;;10.35;25.71
46846;BME280;33947;46.804;134.252;2023-04-08T02:20:17;100128.78;;;11.01;26.79
46846;BME280;33947;46.804;134.252;2023-04-08T02:23:23;100109.19;;;10.51;25.71
46846;BME280;33947;46.804;134.252;2023-04-08T02:26:33;100124.63;;;10.67;26.40
46846;BME280;33947;46.804;134.252;2023-04-08T02:29:41;100094.50;;;10.93;26.14
46846;BME280;33947;46.804;134.252;2023-04-08T02:32:46;100115.03;;;10.34;26.74
46846;BME280;33947;46.804;134.252;2023-04-08T02:35:52;100112.38;;;10.07;26.54
46846;BME280;33947;46.804;134.252;2023-04-08T02:38:58;100085.13;;;10.29;26.96
46846;BME280;33947;46.804;134.252;2023-04-08T02:42:03;100100.22;;;11.55;26.03
46846;BME280;33947;46.804;134.252;2023-04-08T02:45:09;100096.28;;;11.18;26.51
46846;BME280;33947;46.804;134.252;2023-04-08T02:48:13;100106.03;;;10.40;26.90
46846;BME280;33947;46.804;134.252;2023-04-08T02:51:17;100096.94;;;10.74;26.73
46846;BME280;33947;46.804;134.252;2023-04-08T02:54:21;100091.81;;;10.42;26.47
46846;BME280;33947;46.804;134.252;2023-04-08T02:57:25;100097.03;;;10.71;26.07
46846;BME280;33947;46.804;134.252;2023-04-08T03:00:30;100086.66;;;10.63;26.47
46846;BME280;33947;46.804;134.252;2023-04-08T03:03:34;100087.75;;;10.31;27.85
46846;BME280;33947;46.804;134.252;2023-04-08T03:06:39;100091.38;;;10.55;27.28
46846;BME280;33947;46.804;134.252;2023-04-08T03:09:43;100064.19;;;10.20;26.90
46846;BME280;33947;46.804;134.252;2023-04-08T03:12:47;100087.94;;;10.24;24.68
46846;BME280;33947;46.804;134.252;2023-04-08T03:15:51;100080.50;;;9.50;26.87
46846;BME280;33947;46.804;134.252;2023-04-08T03:18:56;100077.94;;;8.51;26.41
46846;BME280;33947;46.804;134.252;2023-04-08T03:22:00;100074.31;;;8.88;27.25
46846;BME280;33947;46.804;134.252;2023-04-08T03:25:05;100062.94;;;9.76;26.68
46846;BME280;33947;46.804;134.252;2023-04-08T03:28:09;100063.06;;;9.41;25.97
46846;BME280;33947;46.804;134.252;2023-04-08T03:31:15;100068.72;;;9.31;26.80
46846;BME280;33947;46.804;134.252;2023-04-08T03:34:20;100055.50;;;9.29;27.53
46846;BME280;33947;46.804;134.252;2023-04-08T03:37:25;100064.06;;;9.39;27.91
46846;BME280;33947;46.804;134.252;2023-04-08T03:40:29;100058.28;;;9.54;26.81
46846;BME280;33947;46.804;134.252;2023-04-08T03:43:36;100045.47;;;9.97;26.62
46846;BME280;33947;46.804;134.252;2023-04-08T03:46:40;100052.44;;;9.43;26.91
46846;BME280;33947;46.804;134.252;2023-04-08T03:49:45;100044.59;;;8.77;25.21
46846;BME280;33947;46.804;134.252;2023-04-08T03:52:49;100051.50;;;9.14;26.17
46846;BME280;33947;46.804;134.252;2023-04-08T03:55:55;100044.16;;;9.54;26.50
46846;BME280;33947;46.804;134.252;2023-04-08T03:59:00;100011.91;;;8.78;25.94
46846;BME280;33947;46.804;134.252;2023-04-08T04:02:04;100030.22;;;8.54;25.58
46846;BME280;33947;46.804;134.252;2023-04-08T04:05:09;100043.03;;;8.35;27.31
46846;BME280;33947;46.804;134.252;2023-04-08T04:08:13;100046.41;;;8.76;26.83
46846;BME280;33947;46.804;134.252;2023-04-08T04:11:18;100037.84;;;8.65;26.71
46846;BME280;33947;46.804;134.252;2023-04-08T04:14:24;100036.88;;;8.34;26.03
46846;BME280;33947;46.804;134.252;2023-04-08T04:17:28;100030.91;;;7.90;27.10
46846;BME280;33947;46.804;134.252;2023-04-08T04:20:33;100027.16;;;8.35;25.93
46846;BME280;33947;46.804;134.252;2023-04-08T04:23:38;100013.94;;;8.35;26.69
46846;BME280;33947;46.804;134.252;2023-04-08T04:26:42;100045.72;;;8.33;26.58
46846;BME280;33947;46.804;134.252;2023-04-08T04:29:46;100030.59;;;8.38;26.17
46846;BME280;33947;46.804;134.252;2023-04-08T04:32:51;99909.38;;;7.13;25.03
46846;BME280;33947;46.804;134.252;2023-04-08T04:35:55;100035.72;;;8.45;26.06
46846;BME280;33947;46.804;134.252;2023-04-08T04:39:00;100009.75;;;8.26;26.68
46846;BME280;33947;46.804;134.252;2023-04-08T04:42:04;100026.47;;;8.26;26.10
46846;BME280;33947;46.804;134.252;2023-04-08T04:45:09;100018.75;;;8.19;26.57
46846;BME280;33947;46.804;134.252;2023-04-08T04:48:14;100039.13;;;8.83;26.17
46846;BME280;33947;46.804;134.252;2023-04-08T04:51:19;100047.94;;;8.49;26.48
46846;BME280;33947;46.804;134.252;2023-04-08T04:54:23;100028.50;;;8.53;27.34
46846;BME280;33947;46.804;134.252;2023-04-08T04:57:28;100018.19;;;8.40;26.25
46846;BME280;33947;46.804;134.252;2023-04-08T05:00:34;100019.28;;;8.66;26.50
46846;BME280;33947;46.804;134.252;2023-04-08T05:03:39;100024.16;;;8.82;27.02
46846;BME280;33947;46.804;134.252;2023-04-08T05:06:44;100038.84;;;8.94;26.51
46846;BME280;33947;46.804;134.252;2023-04-08T05:09:48;99986.25;;;8.47;26.60
46846;BME280;33947;46.804;134.252;2023-04-08T05:12:53;100044.50;;;8.80;26.78
46846;BME280;33947;46.804;134.252;2023-04-08T05:15:57;100028.25;;;8.62;26.51
46846;BME280;33947;46.804;134.252;2023-04-08T05:19:01;100030.31;;;8.15;26.24
46846;BME280;33947;46.804;134.252;2023-04-08T05:22:05;100013.09;;;7.60;25.20
46846;BME280;33947;46.804;134.252;2023-04-08T05:25:10;99994.75;;;7.90;26.41
46846;BME280;33947;46.804;134.252;2023-04-08T05:28:14;100009.59;;;8.31;27.17
46846;BME280;33947;46.804;134.252;2023-04-08T05:31:19;100003.41;;;8.32;27.29
46846;BME280;33947;46.804;134.252;2023-04-08T05:34:24;99992.28;;;8.53;27.29
46846;BME280;33947;46.804;134.252;2023-04-08T05:37:28;100014.06;;;8.96;26.79
46846;BME280;33947;46.804;134.252;2023-04-08T05:40:33;100011.94;;;9.08;25.97
46846;BME280;33947;46.804;134.252;2023-04-08T05:43:38;100007.44;;;8.80;26.59
46846;BME280;33947;46.804;134.252;2023-04-08T05:46:46;99952.06;;;8.39;27.28
46846;BME280;33947;46.804;134.252;2023-04-08T05:49:49;99960.81;;;8.08;26.46
46846;BME280;33947;46.804;134.252;2023-04-08T05:52:54;100011.69;;;8.54;26.48
46846;BME280;33947;46.804;134.252;2023-04-08T05:55:58;100003.31;;;8.69;26.90
46846;BME280;33947;46.804;134.252;2023-04-08T05:59:03;99994.09;;;8.51;27.38
46846;BME280;33947;46.804;134.252;2023-04-08T06:02:09;100013.47;;;8.85;27.38
46846;BME280;33947;46.804;134.252;2023-04-08T06:05:14;99992.16;;;8.58;27.55
46846;BME280;33947;46.804;134.252;2023-04-08T06:08:19;100013.88;;;8.36;28.21
46846;BME280;33947;46.804;134.252;2023-04-08T06:11:23;100001.63;;;8.67;27.51
46846;BME280;33947;46.804;134.252;2023-04-08T06:14:28;100010.22;;;8.42;27.54
46846;BME280;33947;46.804;134.252;2023-04-08T06:17:35;100011.47;;;8.27;28.17
46846;BME280;33947;46.804;134.252;2023-04-08T06:20:40;100004.22;;;8.68;28.11
46846;BME280;33947;46.804;134.252;2023-04-08T06:23:44;100001.94;;;8.88;27.69
46846;BME280;33947;46.804;134.252;2023-04-08T06:26:48;100007.91;;;8.63;27.52
46846;BME280;33947;46.804;134.252;2023-04-08T06:29:53;100002.88;;;8.53;26.97
46846;BME280;33947;46.804;134.252;2023-04-08T06:32:58;100006.06;;;8.66;27.68
46846;BME280;33947;46.804;134.252;2023-04-08T06:36:03;99995.03;;;8.82;27.77
46846;BME280;33947;46.804;134.252;2023-04-08T06:39:08;100005.00;;;9.04;27.46
46846;BME280;33947;46.804;134.252;2023-04-08T06:42:13;99965.88;;;8.82;27.42
46846;BME280;33947;46.804;134.252;2023-04-08T06:45:35;100006.84;;;9.02;27.76
46846;BME280;33947;46.804;134.252;2023-04-08T06:48:40;100007.94;;;8.94;27.30
46846;BME280;33947;46.804;134.252;2023-04-08T06:51:44;99998.50;;;8.51;28.02
46846;BME280;33947;46.804;134.252;2023-04-08T06:54:49;99996.50;;;8.26;28.12
46846;BME280;33947;46.804;134.252;2023-04-08T06:57:53;100011.66;;;8.21;27.73
46846;BME280;33947;46.804;134.252;2023-04-08T07:00:58;100013.13;;;8.31;28.30
46846;BME280;33947;46.804;134.252;2023-04-08T07:04:04;100016.50;;;8.38;28.74
46846;BME280;33947;46.804;134.252;2023-04-08T07:07:08;100020.75;;;8.09;29.37
46846;BME280;33947;46.804;134.252;2023-04-08T07:10:12;100030.25;;;7.81;29.63
46846;BME280;33947;46.804;134.252;2023-04-08T07:13:16;100018.94;;;7.75;29.08
46846;BME280;33947;46.804;134.252;2023-04-08T07:16:21;100022.59;;;8.05;29.06
46846;BME280;33947;46.804;134.252;2023-04-08T07:19:26;100027.44;;;8.24;27.82
46846;BME280;33947;46.804;134.252;2023-04-08T07:22:31;100000.22;;;8.19;28.38
46846;BME280;33947;46.804;134.252;2023-04-08T07:25:35;100026.19;;;8.37;28.24
46846;BME280;33947;46.804;134.252;2023-04-08T07:28:39;100020.09;;;8.35;28.81
46846;BME280;33947;46.804;134.252;2023-04-08T07:31:43;100030.91;;;8.26;30.68
46846;BME280;33947;46.804;134.252;2023-04-08T07:34:48;100026.19;;;8.39;31.12
46846;BME280;33947;46.804;134.252;2023-04-08T07:37:53;100045.22;;;8.19;31.77
46846;BME280;33947;46.804;134.252;2023-04-08T07:40:57;100044.22;;;7.87;31.98
46846;BME280;33947;46.804;134.252;2023-04-08T07:44:01;100031.47;;;7.66;32.91
46846;BME280;33947;46.804;134.252;2023-04-08T07:47:05;100056.69;;;7.81;32.99
46846;BME280;33947;46.804;134.252;2023-04-08T07:50:10;100058.28;;;7.89;31.90
46846;BME280;33947;46.804;134.252;2023-04-08T07:53:15;100060.03;;;7.88;33.15
46846;BME280;33947;46.804;134.252;2023-04-08T07:56:19;100062.03;;;7.78;33.33
46846;BME280;33947;46.804;134.252;2023-04-08T07:59:25;100052.63;;;7.66;34.43
46846;BME280;33947;46.804;134.252;2023-04-08T08:02:29;100050.97;;;7.61;34.58
46846;BME280;33947;46.804;134.252;2023-04-08T08:05:37;100076.19;;;7.77;35.34
46846;BME280;33947;46.804;134.252;2023-04-08T08:08:42;100078.94;;;7.71;35.24
46846;BME280;33947;46.804;134.252;2023-04-08T08:11:47;100076.34;;;7.68;36.01
46846;BME280;33947;46.804;134.252;2023-04-08T08:14:51;100067.47;;;7.31;36.25
46846;BME280;33947;46.804;134.252;2023-04-08T08:17:57;100068.38;;;6.86;37.54
46846;BME280;33947;46.804;134.252;2023-04-08T08:21:02;100073.84;;;6.75;37.35
46846;BME280;33947;46.804;134.252;2023-04-08T08:24:07;100077.00;;;6.94;37.67
46846;BME280;33947;46.804;134.252;2023-04-08T08:27:11;100054.38;;;6.83;37.32
46846;BME280;33947;46.804;134.252;2023-04-08T08:30:15;100076.53;;;6.72;37.60
46846;BME280;33947;46.804;134.252;2023-04-08T08:33:20;100088.94;;;6.69;38.31
46846;BME280;33947;46.804;134.252;2023-04-08T08:36:24;100100.69;;;6.50;38.73
46846;BME280;33947;46.804;134.252;2023-04-08T08:39:33;100101.00;;;6.32;39.30
46846;BME280;33947;46.804;134.252;2023-04-08T08:42:38;100107.88;;;6.41;39.10
46846;BME280;33947;46.804;134.252;2023-04-08T08:45:43;100101.03;;;6.29;39.37
46846;BME280;33947;46.804;134.252;2023-04-08T08:48:47;100101.31;;;6.12;39.78
46846;BME280;33947;46.804;134.252;2023-04-08T08:51:53;100109.00;;;6.27;40.51
46846;BME280;33947;46.804;134.252;2023-04-08T08:54:58;100113.69;;;6.06;40.59
46846;BME280;33947;46.804;134.252;2023-04-08T08:58:11;100103.53;;;5.80;41.00
46846;BME280;33947;46.804;134.252;2023-04-08T09:01:32;100105.59;;;5.56;42.35
46846;BME280;33947;46.804;134.252;2023-04-08T09:04:37;100123.31;;;5.45;42.92
46846;BME280;33947;46.804;134.252;2023-04-08T09:07:42;100134.00;;;5.31;43.50
46846;BME280;33947;46.804;134.252;2023-04-08T09:10:47;100148.06;;;5.28;43.18
46846;BME280;33947;46.804;134.252;2023-04-08T09:13:51;100128.69;;;5.35;42.46
46846;BME280;33947;46.804;134.252;2023-04-08T09:16:56;100160.09;;;5.51;43.08
46846;BME280;33947;46.804;134.252;2023-04-08T09:20:09;100161.25;;;5.30;43.42
46846;BME280;33947;46.804;134.252;2023-04-08T09:23:17;100172.78;;;5.19;43.62
46846;BME280;33947;46.804;134.252;2023-04-08T09:26:23;100177.97;;;5.24;43.49
46846;BME280;33947;46.804;134.252;2023-04-08T09:29:28;100163.31;;;5.00;44.31
46846;BME280;33947;46.804;134.252;2023-04-08T09:32:57;100171.34;;;4.84;45.32
46846;BME280;33947;46.804;134.252;2023-04-08T09:36:03;100174.88;;;4.82;44.22
46846;BME280;33947;46.804;134.252;2023-04-08T09:39:14;100160.22;;;4.56;45.39
46846;BME280;33947;46.804;134.252;2023-04-08T09:42:20;100185.63;;;4.55;45.58
46846;BME280;33947;46.804;134.252;2023-04-08T09:45:25;100182.91;;;4.64;44.65
46846;BME280;33947;46.804;134.252;2023-04-08T09:48:35;100142.94;;;4.20;45.31
46846;BME280;33947;46.804;134.252;2023-04-08T09:52:16;100205.94;;;4.38;46.37
46846;BME280;33947;46.804;134.252;2023-04-08T09:55:17;100208.69;;;4.20;46.50
46846;BME280;33947;46.804;134.252;2023-04-08T09:58:29;100217.44;;;4.19;46.29
46846;BME280;33947;46.804;134.252;2023-04-08T10:01:39;100212.31;;;3.98;47.64
46846;BME280;33947;46.804;134.252;2023-04-08T10:04:50;100186.25;;;3.51;48.04
46846;BME280;33947;46.804;134.252;2023-04-08T10:07:58;100230.81;;;3.70;47.52
46846;BME280;33947;46.804;134.252;2023-04-08T10:11:03;100238.72;;;3.64;47.92
46846;BME280;33947;46.804;134.252;2023-04-08T10:14:08;100225.59;;;3.57;47.59
46846;BME280;33947;46.804;134.252;2023-04-08T10:17:24;100243.97;;;3.60;48.61
46846;BME280;33947;46.804;134.252;2023-04-08T10:23:55;100265.00;;;3.56;48.23
46846;BME280;33947;46.804;134.252;2023-04-08T10:27:02;100244.94;;;3.36;47.95
46846;BME280;33947;46.804;134.252;2023-04-08T10:30:38;100274.69;;;3.43;48.92
46846;BME280;33947;46.804;134.252;2023-04-08T10:33:42;100272.91;;;3.40;48.07
46846;BME280;33947;46.804;134.252;2023-04-08T10:36:47;100250.19;;;3.14;48.90
46846;BME280;33947;46.804;134.252;2023-04-08T10:39:53;100277.31;;;3.19;48.80
46846;BME280;33947;46.804;134.252;2023-04-08T10:42:58;100290.44;;;3.13;48.58
46846;BME280;33947;46.804;134.252;2023-04-08T10:46:03;100286.09;;;3.00;48.73
46846;BME280;33947;46.804;134.252;2023-04-08T10:49:08;100292.19;;;2.94;49.61
46846;BME280;33947;46.804;134.252;2023-04-08T10:52:13;100297.44;;;2.72;52.06
46846;BME280;33947;46.804;134.252;2023-04-08T10:55:25;100284.31;;;2.66;50.73
46846;BME280;33947;46.804;134.252;2023-04-08T10:58:30;100295.66;;;2.67;50.67
46846;BME280;33947;46.804;134.252;2023-04-08T11:01:38;100207.28;;;2.02;50.73
46846;BME280;33947;46.804;134.252;2023-04-08T11:04:43;100308.72;;;2.43;50.67
46846;BME280;33947;46.804;134.252;2023-04-08T11:07:51;100301.69;;;2.25;51.70
46846;BME280;33947;46.804;134.252;2023-04-08T11:10:57;100319.16;;;2.25;51.90
46846;BME280;33947;46.804;134.252;2023-04-08T11:14:05;100303.34;;;2.03;52.48
46846;BME280;33947;46.804;134.252;2023-04-08T11:17:09;100321.69;;;1.97;52.36
46846;BME280;33947;46.804;134.252;2023-04-08T11:20:15;100330.19;;;1.60;54.47
46846;BME280;33947;46.804;134.252;2023-04-08T11:23:24;100341.56;;;1.65;53.13
46846;BME280;33947;46.804;134.252;2023-04-08T11:26:35;100339.78;;;1.59;53.84
46846;BME280;33947;46.804;134.252;2023-04-08T11:29:40;100347.41;;;1.27;55.85
46846;BME280;33947;46.804;134.252;2023-04-08T11:32:44;100326.31;;;1.08;54.79
46846;BME280;33947;46.804;134.252;2023-04-08T11:35:50;100329.03;;;1.21;54.68
46846;BME280;33947;46.804;134.252;2023-04-08T11:38:55;100352.72;;;1.36;53.93
46846;BME280;33947;46.804;134.252;2023-04-08T11:41:59;100359.53;;;1.15;54.94
46846;BME280;33947;46.804;134.252;2023-04-08T11:45:14;100353.44;;;1.15;55.69
46846;BME280;33947;46.804;134.252;2023-04-08T11:48:19;100349.88;;;1.08;55.08
46846;BME280;33947;46.804;134.252;2023-04-08T11:51:24;100360.28;;;1.04;55.36
46846;BME280;33947;46.804;134.252;2023-04-08T11:54:30;100361.97;;;0.98;55.99
46846;BME280;33947;46.804;134.252;2023-04-08T11:57:35;100350.56;;;0.89;55.73
46846;BME280;33947;46.804;134.252;2023-04-08T12:00:40;100363.06;;;1.21;55.03
46846;BME280;33947;46.804;134.252;2023-04-08T12:03:56;100372.56;;;1.11;55.23
46846;BME280;33947;46.804;134.252;2023-04-08T12:07:01;100367.28;;;1.08;55.70
46846;BME280;33947;46.804;134.252;2023-04-08T12:10:05;100373.06;;;0.76;56.63
46846;BME280;33947;46.804;134.252;2023-04-08T12:13:10;100379.91;;;0.60;57.65
46846;BME280;33947;46.804;134.252;2023-04-08T12:16:14;100363.63;;;0.89;56.26
46846;BME280;33947;46.804;134.252;2023-04-08T12:19:20;100378.44;;;0.85;56.61
46846;BME280;33947;46.804;134.252;2023-04-08T12:22:24;100329.09;;;0.36;57.73
46846;BME280;33947;46.804;134.252;2023-04-08T12:25:39;100132.66;;;-0.93;58.18
46846;BME280;33947;46.804;134.252;2023-04-08T12:28:45;100351.97;;;0.57;57.55
46846;BME280;33947;46.804;134.252;2023-04-08T12:31:49;100380.06;;;0.75;57.47
46846;BME280;33947;46.804;134.252;2023-04-08T12:34:54;100366.75;;;0.52;57.51
46846;BME280;33947;46.804;134.252;2023-04-08T12:37:58;100354.41;;;0.40;57.87
46846;BME280;33947;46.804;134.252;2023-04-08T12:41:02;100375.31;;;0.38;58.08
46846;BME280;33947;46.804;134.252;2023-04-08T12:44:06;100377.06;;;0.41;58.17
46846;BME280;33947;46.804;134.252;2023-04-08T12:47:11;100357.75;;;0.28;58.15
46846;BME280;33947;46.804;134.252;2023-04-08T12:50:15;100397.94;;;0.38;58.39
46846;BME280;33947;46.804;134.252;2023-04-08T12:53:19;100347.00;;;0.05;58.58
46846;BME280;33947;46.804;134.252;2023-04-08T12:56:23;100370.66;;;0.17;58.12
46846;BME280;33947;46.804;134.252;2023-04-08T12:59:28;100401.16;;;0.18;58.70
46846;BME280;33947;46.804;134.252;2023-04-08T13:02:32;100408.13;;;0.18;59.05
46846;BME280;33947;46.804;134.252;2023-04-08T13:05:36;100355.91;;;-0.44;60.40
46846;BME280;33947;46.804;134.252;2023-04-08T13:08:45;100401.41;;;-0.28;60.65
46846;BME280;33947;46.804;134.252;2023-04-08T13:11:50;100406.06;;;-0.05;59.79
46846;BME280;33947;46.804;134.252;2023-04-08T13:14:54;100401.22;;;0.23;58.25
46846;BME280;33947;46.804;134.252;2023-04-08T13:17:59;100390.00;;;0.30;57.23
46846;BME280;33947;46.804;134.252;2023-04-08T13:21:04;100372.75;;;0.46;55.86
46846;BME280;33947;46.804;134.252;2023-04-08T13:24:08;100385.59;;;0.26;57.36
46846;BME280;33947;46.804;134.252;2023-04-08T13:27:13;100392.41;;;0.14;58.36
46846;BME280;33947;46.804;134.252;2023-04-08T13:30:17;100334.66;;;-0.07;57.42
46846;BME280;33947;46.804;134.252;2023-04-08T13:33:22;100343.72;;;-0.44;59.11
46846;BME280;33947;46.804;134.252;2023-04-08T13:36:26;100383.13;;;-0.28;60.05
46846;BME280;33947;46.804;134.252;2023-04-08T13:39:31;100385.28;;;0.01;58.44
46846;BME280;33947;46.804;134.252;2023-04-08T13:42:34;100366.88;;;-0.07;57.92
46846;BME280;33947;46.804;134.252;2023-04-08T13:45:40;100387.16;;;0.11;57.92
46846;BME280;33947;46.804;134.252;2023-04-08T13:48:44;100414.94;;;0.08;59.21
46846;BME280;33947;46.804;134.252;2023-04-08T13:51:49;100393.94;;;-0.02;58.64
46846;BME280;33947;46.804;134.252;2023-04-08T13:54:53;100404.19;;;-0.16;58.78
46846;BME280;33947;46.804;134.252;2023-04-08T13:57:58;100353.53;;;-0.85;60.72
46846;BME280;33947;46.804;134.252;2023-04-08T14:01:04;100433.47;;;-0.86;64.87
46846;BME280;33947;46.804;134.252;2023-04-08T14:04:08;100424.06;;;-0.78;62.41
46846;BME280;33947;46.804;134.252;2023-04-08T14:07:13;100431.88;;;-0.78;61.92
46846;BME280;33947;46.804;134.252;2023-04-08T14:10:17;100431.97;;;-0.73;61.53
46846;BME280;33947;46.804;134.252;2023-04-08T14:13:22;100426.06;;;-0.63;60.96
46846;BME280;33947;46.804;134.252;2023-04-08T14:16:26;100411.91;;;-0.77;60.97
46846;BME280;33947;46.804;134.252;2023-04-08T14:19:32;100443.91;;;-0.88;63.42
46846;BME280;33947;46.804;134.252;2023-04-08T14:22:36;100434.44;;;-0.81;61.58
46846;BME280;33947;46.804;134.252;2023-04-08T14:25:40;100441.94;;;-0.49;60.44
46846;BME280;33947;46.804;134.252;2023-04-08T14:28:45;100452.94;;;-0.67;61.21
46846;BME280;33947;46.804;134.252;2023-04-08T14:32:15;100450.03;;;-0.85;63.83
46846;BME280;33947;46.804;134.252;2023-04-08T14:35:20;100460.78;;;-1.14;64.77
46846;BME280;33947;46.804;134.252;2023-04-08T14:38:24;100453.00;;;-1.13;64.62
46846;BME280;33947;46.804;134.252;2023-04-08T14:41:29;100436.53;;;-1.10;63.20
46846;BME280;33947;46.804;134.252;2023-04-08T14:44:33;100447.47;;;-0.82;62.13
46846;BME280;33947;46.804;134.252;2023-04-08T14:47:38;100450.03;;;-0.84;62.18
46846;BME280;33947;46.804;134.252;2023-04-08T14:50:42;100433.22;;;-1.00;61.87
46846;BME280;33947;46.804;134.252;2023-04-08T14:53:47;100435.34;;;-0.80;61.35
46846;BME280;33947;46.804;134.252;2023-04-08T14:56:51;100439.19;;;-0.58;60.44
46846;BME280;33947;46.804;134.252;2023-04-08T14:59:56;100414.41;;;-0.83;60.64
46846;BME280;33947;46.804;134.252;2023-04-08T15:03:02;100453.81;;;-1.15;62.96
46846;BME280;33947;46.804;134.252;2023-04-08T15:06:07;100421.84;;;-1.51;63.81
46846;BME280;33947;46.804;134.252;2023-04-08T15:09:11;100456.50;;;-1.11;62.96
46846;BME280;33947;46.804;134.252;2023-04-08T15:12:16;100455.47;;;-1.62;65.56
46846;BME280;33947;46.804;134.252;2023-04-08T15:15:20;100441.56;;;-1.63;65.11
46846;BME280;33947;46.804;134.252;2023-04-08T15:18:25;100442.44;;;-1.62;65.65
46846;BME280;33947;46.804;134.252;2023-04-08T15:21:30;100445.19;;;-1.56;64.79
46846;BME280;33947;46.804;134.252;2023-04-08T15:24:34;100446.88;;;-1.58;65.27
46846;BME280;33947;46.804;134.252;2023-04-08T15:27:40;100450.41;;;-1.54;64.74
46846;BME280;33947;46.804;134.252;2023-04-08T15:30:46;100433.44;;;-1.77;64.84
46846;BME280;33947;46.804;134.252;2023-04-08T15:33:50;100446.81;;;-1.60;64.90
46846;BME280;33947;46.804;134.252;2023-04-08T15:36:55;100445.06;;;-1.62;64.59
46846;BME280;33947;46.804;134.252;2023-04-08T15:40:00;100445.69;;;-1.72;65.73
46846;BME280;33947;46.804;134.252;2023-04-08T15:43:04;100435.97;;;-1.80;65.48
46846;BME280;33947;46.804;134.252;2023-04-08T15:46:19;100431.47;;;-1.88;65.39
46846;BME280;33947;46.804;134.252;2023-04-08T15:49:24;100455.00;;;-1.84;65.54
46846;BME280;33947;46.804;134.252;2023-04-08T15:52:29;100453.00;;;-1.96;66.02
46846;BME280;33947;46.804;134.252;2023-04-08T15:55:40;100456.16;;;-2.09;68.07
46846;BME280;33947;46.804;134.252;2023-04-08T15:58:45;100451.00;;;-1.69;64.87